createdAt,value
2022-08-23T00:01:44.766Z,99.90
2022-08-23T00:04:19.639Z,99.90
2022-08-23T00:06:48.705Z,99.90
2022-08-23T00:09:16.445Z,99.90
2022-08-23T00:11:47.838Z,99.90
2022-08-23T00:14:16.938Z,99.90
2022-08-23T00:16:44.710Z,99.90
2022-08-23T00:19:15.121Z,99.90
2022-08-23T00:21:42.729Z,99.90
2022-08-23T00:24:12.094Z,99.90
2022-08-23T00:27:05.025Z,99.90
2022-08-23T00:29:38.003Z,99.90
2022-08-23T00:32:09.970Z,99.90
2022-08-23T00:34:38.209Z,99.90
2022-08-23T00:37:06.166Z,99.90
2022-08-23T00:39:33.073Z,99.90
2022-08-23T00:42:30.549Z,99.90
2022-08-23T00:45:19.151Z,99.90
2022-08-23T00:47:46.500Z,99.90
2022-08-23T00:50:27.779Z,99.90
2022-08-23T00:53:07.020Z,99.90
2022-08-23T00:55:34.910Z,99.90
2022-08-23T00:58:04.888Z,99.90
2022-08-23T01:00:32.730Z,99.90
2022-08-23T01:02:59.855Z,99.90
2022-08-23T01:05:45.021Z,99.90
2022-08-23T01:08:15.076Z,99.90
2022-08-23T01:10:48.034Z,99.90
2022-08-23T01:13:23.621Z,99.90
2022-08-23T01:16:16.262Z,99.90
2022-08-23T01:18:44.203Z,99.90
2022-08-23T01:21:30.348Z,99.90
2022-08-23T01:24:03.237Z,99.90
2022-08-23T01:26:35.148Z,99.90
2022-08-23T01:29:05.012Z,99.90
2022-08-23T01:31:33.429Z,99.90
2022-08-23T01:34:09.962Z,99.90
2022-08-23T01:36:37.285Z,99.90
2022-08-23T01:39:05.586Z,99.90
2022-08-23T01:41:32.460Z,99.90
2022-08-23T01:43:59.444Z,99.90
2022-08-23T01:46:27.111Z,99.90
2022-08-23T01:48:58.501Z,99.90
2022-08-23T01:51:26.610Z,99.90
2022-08-23T01:53:53.628Z,99.90
2022-08-23T01:56:37.997Z,99.90
2022-08-23T01:59:05.327Z,99.90
2022-08-23T02:01:32.212Z,99.90
2022-08-23T02:04:04.937Z,99.90
2022-08-23T02:06:32.940Z,99.90
2022-08-23T02:09:04.206Z,99.90
2022-08-23T02:11:37.305Z,99.90
2022-08-23T02:14:08.733Z,99.90
2022-08-23T02:16:41.960Z,99.90
2022-08-23T02:19:18.325Z,99.90
2022-08-23T02:21:46.902Z,99.90
2022-08-23T02:24:16.887Z,99.90
2022-08-23T02:26:46.887Z,99.90
2022-08-23T02:29:20.411Z,99.90
2022-08-23T02:31:49.656Z,99.90
2022-08-23T02:34:37.337Z,99.90
2022-08-23T02:37:05.653Z,99.90
2022-08-23T02:39:32.837Z,99.90
2022-08-23T02:42:01.093Z,99.90
2022-08-23T02:44:28.347Z,99.90
2022-08-23T02:46:56.356Z,99.90
2022-08-23T02:49:23.334Z,99.90
2022-08-23T02:51:50.312Z,99.90
2022-08-23T02:54:17.254Z,99.90
2022-08-23T02:56:44.200Z,99.90
2022-08-23T02:59:11.146Z,99.90
2022-08-23T03:01:39.429Z,99.90
2022-08-23T03:04:08.612Z,99.90
2022-08-23T03:06:36.103Z,99.90
2022-08-23T03:09:05.131Z,99.90
2022-08-23T03:11:32.099Z,99.90
2022-08-23T03:13:59.097Z,99.90
2022-08-23T03:16:26.077Z,99.90
2022-08-23T03:18:53.349Z,99.90
2022-08-23T03:21:21.030Z,99.90
2022-08-23T03:23:48.741Z,99.90
2022-08-23T03:26:16.454Z,99.90
2022-08-23T03:28:44.652Z,99.90
2022-08-23T03:31:12.437Z,99.90
2022-08-23T03:33:39.928Z,99.90
2022-08-23T03:36:09.461Z,99.90
2022-08-23T03:38:38.606Z,99.90
2022-08-23T03:41:06.035Z,99.90
2022-08-23T03:43:34.650Z,99.90
2022-08-23T03:46:01.528Z,99.90
2022-08-23T03:48:28.401Z,99.90
2022-08-23T03:50:55.292Z,99.90
2022-08-23T03:53:23.874Z,99.90
2022-08-23T03:55:53.393Z,99.90
2022-08-23T03:58:22.251Z,99.90
2022-08-23T04:00:49.317Z,99.90
2022-08-23T04:03:16.427Z,99.90
2022-08-23T04:05:43.669Z,99.90
2022-08-23T04:08:11.383Z,99.90
2022-08-23T04:10:39.403Z,99.90
2022-08-23T04:13:09.163Z,99.90
2022-08-23T04:15:37.140Z,99.90
2022-08-23T04:18:05.450Z,99.90
2022-08-23T04:20:33.389Z,99.90
2022-08-23T04:23:00.947Z,99.90
2022-08-23T04:25:34.928Z,99.90
2022-08-23T04:28:03.525Z,99.90
2022-08-23T04:30:30.952Z,99.90
2022-08-23T04:32:57.995Z,99.90
2022-08-23T04:35:26.146Z,99.90
2022-08-23T04:37:54.009Z,99.90
2022-08-23T04:40:39.321Z,99.90
2022-08-23T04:43:08.674Z,99.90
2022-08-23T04:45:39.198Z,99.90
2022-08-23T04:48:06.922Z,99.90
2022-08-23T04:50:40.924Z,99.90
2022-08-23T04:53:08.292Z,99.90
2022-08-23T04:55:36.358Z,99.90
2022-08-23T04:58:04.463Z,99.90
2022-08-23T05:00:31.593Z,99.90
2022-08-23T05:02:58.614Z,99.90
2022-08-23T05:05:26.462Z,99.90
2022-08-23T05:07:54.015Z,99.90
2022-08-23T05:10:21.043Z,99.90
2022-08-23T05:12:48.718Z,99.90
2022-08-23T05:15:15.852Z,99.90
2022-08-23T05:17:42.682Z,99.90
2022-08-23T05:20:10.390Z,99.90
2022-08-23T05:22:39.430Z,99.90
2022-08-23T05:25:07.090Z,99.90
2022-08-23T05:27:34.126Z,99.90
2022-08-23T05:30:00.909Z,99.90
2022-08-23T05:32:30.393Z,99.90
2022-08-23T05:35:00.220Z,99.90
2022-08-23T05:37:27.123Z,99.90
2022-08-23T05:39:54.100Z,99.90
2022-08-23T05:42:20.959Z,99.90
2022-08-23T05:44:47.982Z,99.90
2022-08-23T05:47:16.354Z,99.90
2022-08-23T05:49:44.491Z,99.90
2022-08-23T05:52:13.521Z,99.90
2022-08-23T05:54:40.592Z,99.90
2022-08-23T05:57:07.702Z,99.90
2022-08-23T05:59:34.616Z,99.90
2022-08-23T06:02:02.070Z,99.90
2022-08-23T06:04:29.005Z,99.90
2022-08-23T06:07:01.431Z,99.90
2022-08-23T06:09:28.349Z,99.90
2022-08-23T06:11:56.188Z,99.90
2022-08-23T06:14:23.695Z,99.90
2022-08-23T06:16:55.471Z,99.90
2022-08-23T06:19:23.921Z,99.90
2022-08-23T06:21:52.498Z,99.90
2022-08-23T06:24:20.154Z,99.90
2022-08-23T06:26:47.590Z,99.90
2022-08-23T06:29:19.172Z,99.90
2022-08-23T06:31:51.495Z,99.90
2022-08-23T06:34:33.822Z,99.90
2022-08-23T06:37:12.319Z,99.90
2022-08-23T06:39:39.481Z,99.90
2022-08-23T06:42:34.817Z,99.90
2022-08-23T06:44:56.782Z,99.90
2022-08-23T06:47:23.747Z,99.90
2022-08-23T06:49:55.371Z,99.90
2022-08-23T06:52:27.544Z,99.90
2022-08-23T06:54:55.051Z,99.90
2022-08-23T06:57:21.983Z,99.90
2022-08-23T06:59:50.003Z,99.90
2022-08-23T07:02:17.141Z,99.90
2022-08-23T07:04:44.356Z,99.90
2022-08-23T07:07:12.478Z,99.90
2022-08-23T07:09:40.383Z,99.90
2022-08-23T07:12:07.677Z,99.90
2022-08-23T07:14:34.919Z,99.90
2022-08-23T07:17:03.684Z,99.90
2022-08-23T07:19:35.026Z,99.90
2022-08-23T07:22:03.452Z,99.90
2022-08-23T07:24:33.537Z,99.90
2022-08-23T07:27:06.795Z,99.90
2022-08-23T07:29:35.956Z,99.90
2022-08-23T07:32:03.435Z,99.90
2022-08-23T07:34:30.376Z,99.90
2022-08-23T07:36:57.454Z,99.90
2022-08-23T07:39:26.391Z,99.90
2022-08-23T07:41:53.466Z,99.90
2022-08-23T07:44:23.538Z,94.50
2022-08-23T07:46:54.420Z,91.80
2022-08-23T07:49:29.232Z,80.30
2022-08-23T07:51:58.778Z,73.60
2022-08-23T07:54:25.941Z,68.80
2022-08-23T07:56:52.818Z,64.10
2022-08-23T07:59:23.809Z,60.40
2022-08-23T08:01:50.718Z,56.20
2022-08-23T08:04:17.638Z,54.90
2022-08-23T08:06:59.951Z,53.30
2022-08-23T08:09:34.873Z,52.30
2022-08-23T08:12:01.769Z,50.30
2022-08-23T08:14:28.629Z,49.10
2022-08-23T08:16:58.616Z,46.30
2022-08-23T08:19:25.821Z,44.50
2022-08-23T08:21:53.277Z,45.00
2022-08-23T08:24:20.174Z,42.30
2022-08-23T08:26:51.295Z,43.80
2022-08-23T08:29:18.367Z,42.90
2022-08-23T08:31:50.319Z,41.90
2022-08-23T08:34:20.179Z,43.60
2022-08-23T08:36:58.434Z,41.60
2022-08-23T08:39:30.286Z,40.90
2022-08-23T08:42:12.727Z,40.60
2022-08-23T08:44:51.542Z,39.70
2022-08-23T08:47:39.845Z,39.80
2022-08-23T08:50:33.985Z,38.60
2022-08-23T08:53:27.992Z,38.90
2022-08-23T08:56:01.076Z,38.50
2022-08-23T08:58:36.718Z,38.50
2022-08-23T09:01:03.557Z,38.30
2022-08-23T09:03:34.780Z,37.50
2022-08-23T09:06:33.869Z,35.20
2022-08-23T09:09:03.763Z,35.60
2022-08-23T09:11:45.682Z,34.20
2022-08-23T09:14:24.581Z,35.30
2022-08-23T09:17:24.284Z,34.40
2022-08-23T09:19:56.453Z,36.70
2022-08-23T09:22:51.413Z,34.70
2022-08-23T09:25:18.707Z,33.90
2022-08-23T09:27:46.457Z,32.50
2022-08-23T09:30:17.260Z,31.90
2022-08-23T09:32:46.668Z,32.00
2022-08-23T09:35:23.015Z,30.50
2022-08-23T09:37:59.103Z,31.80
2022-08-23T09:40:45.145Z,32.50
2022-08-23T09:43:13.196Z,31.60
2022-08-23T09:46:01.347Z,31.10
2022-08-23T09:48:45.526Z,30.40
2022-08-23T09:51:22.504Z,32.60
2022-08-23T09:53:53.481Z,30.40
2022-08-23T09:56:26.500Z,29.80
2022-08-23T09:58:54.499Z,29.50
2022-08-23T10:01:27.423Z,29.00
2022-08-23T10:04:24.515Z,31.10
2022-08-23T10:06:53.037Z,29.70
2022-08-23T10:09:25.678Z,30.00
2022-08-23T10:11:52.603Z,29.70
2022-08-23T10:14:24.294Z,28.10
2022-08-23T10:17:31.072Z,29.20
2022-08-23T10:20:13.986Z,29.20
2022-08-23T10:23:17.982Z,29.30
2022-08-23T10:25:58.412Z,28.40
2022-08-23T10:28:53.114Z,28.00
2022-08-23T10:31:29.211Z,28.10
2022-08-23T10:34:16.279Z,29.70
2022-08-23T10:37:08.067Z,29.20
2022-08-23T10:39:44.024Z,29.50
2022-08-23T10:42:32.405Z,28.60
2022-08-23T10:45:24.634Z,29.80
2022-08-23T10:48:10.060Z,30.00
2022-08-23T10:50:55.490Z,29.20
2022-08-23T10:53:29.577Z,29.20
2022-08-23T10:56:04.316Z,29.60
2022-08-23T10:58:49.593Z,31.00
2022-08-23T11:01:33.405Z,30.10
2022-08-23T11:04:06.698Z,30.00
2022-08-23T11:06:36.549Z,29.00
2022-08-23T11:09:27.891Z,27.10
2022-08-23T11:12:31.015Z,27.60
2022-08-23T11:15:24.144Z,27.10
2022-08-23T11:17:50.957Z,28.70
2022-08-23T11:20:48.895Z,28.00
2022-08-23T11:23:38.599Z,28.00
2022-08-23T11:26:08.822Z,27.80
2022-08-23T11:28:43.162Z,28.20
2022-08-23T11:31:22.263Z,29.20
2022-08-23T11:34:29.648Z,28.50
2022-08-23T11:37:28.714Z,27.60
2022-08-23T11:40:18.418Z,28.40
2022-08-23T11:42:58.225Z,28.70
2022-08-23T11:45:32.196Z,29.00
2022-08-23T11:48:35.702Z,28.90
2022-08-23T11:51:21.178Z,29.90
2022-08-23T11:54:27.646Z,30.30
2022-08-23T11:57:15.924Z,29.00
2022-08-23T12:00:12.854Z,29.20
2022-08-23T12:03:07.889Z,29.50
2022-08-23T12:09:04.195Z,31.50
2022-08-23T12:11:57.199Z,32.50
2022-08-23T12:14:45.401Z,31.30
2022-08-23T12:17:12.243Z,31.90
2022-08-23T12:19:53.911Z,33.10
2022-08-23T12:22:25.351Z,33.10
2022-08-23T12:24:54.399Z,32.70
2022-08-23T12:27:33.460Z,33.30
2022-08-23T12:30:09.557Z,34.10
2022-08-23T12:32:58.306Z,35.90
2022-08-23T12:35:43.818Z,35.10
2022-08-23T12:38:28.792Z,36.00
2022-08-23T12:40:56.821Z,35.80
2022-08-23T12:43:26.872Z,36.80
2022-08-23T12:46:00.986Z,36.60
2022-08-23T12:48:33.921Z,36.30
2022-08-23T12:51:10.572Z,37.20
2022-08-23T12:53:45.115Z,38.00
2022-08-23T12:56:15.647Z,38.00
2022-08-23T12:58:47.967Z,38.20
2022-08-23T13:01:23.528Z,37.90
2022-08-23T13:04:08.289Z,37.80
2022-08-23T13:06:40.124Z,37.40
2022-08-23T13:09:36.549Z,38.50
2022-08-23T13:12:04.897Z,38.20
2022-08-23T13:14:37.350Z,38.60
2022-08-23T13:17:19.235Z,38.10
2022-08-23T13:19:48.791Z,38.40
2022-08-23T13:22:19.324Z,39.10
2022-08-23T13:25:28.777Z,38.80
2022-08-23T13:27:53.882Z,38.40
2022-08-23T13:30:36.318Z,40.50
2022-08-23T13:33:07.655Z,39.60
2022-08-23T13:35:46.982Z,40.60
2022-08-23T13:38:21.386Z,40.10
2022-08-23T13:41:00.439Z,40.60
2022-08-23T13:43:39.064Z,40.60
2022-08-23T13:46:22.601Z,41.70
2022-08-23T13:49:01.012Z,41.10
2022-08-23T13:51:27.821Z,41.10
2022-08-23T13:53:56.286Z,40.90
2022-08-23T13:56:24.338Z,41.60
2022-08-23T13:59:31.558Z,41.50
2022-08-23T14:02:05.516Z,41.90
2022-08-23T14:04:32.866Z,41.60
2022-08-23T14:06:59.966Z,41.30
2022-08-23T14:09:26.789Z,42.40
2022-08-23T14:11:58.873Z,41.90
2022-08-23T14:14:27.247Z,42.70
2022-08-23T14:16:54.571Z,43.10
2022-08-23T14:22:08.348Z,43.40
2022-08-23T14:24:35.273Z,42.90
2022-08-23T14:27:02.408Z,42.80
2022-08-23T14:29:29.321Z,42.10
2022-08-23T14:31:59.211Z,41.80
2022-08-23T14:34:30.113Z,42.50
2022-08-23T14:39:45.381Z,42.10
2022-08-23T14:42:13.482Z,42.00
2022-08-23T14:44:41.540Z,41.80
2022-08-23T14:47:08.379Z,42.10
2022-08-23T14:49:36.093Z,42.00
2022-08-23T14:52:03.667Z,41.70
2022-08-23T14:54:30.822Z,41.50
2022-08-23T14:56:57.897Z,40.60
2022-08-23T14:59:24.927Z,41.10
2022-08-23T15:01:53.920Z,41.80
2022-08-23T15:04:23.508Z,42.30
2022-08-23T15:07:17.835Z,41.60
2022-08-23T15:09:39.032Z,41.30
2022-08-23T15:12:57.404Z,41.50
2022-08-23T15:16:01.340Z,41.40
2022-08-23T15:18:28.508Z,41.40
2022-08-23T15:20:56.472Z,41.90
2022-08-23T15:23:23.889Z,42.80
2022-08-23T15:25:51.295Z,41.90
2022-08-23T15:28:20.810Z,41.90
2022-08-23T15:30:49.388Z,41.60
2022-08-23T15:33:16.752Z,41.90
2022-08-23T15:35:51.891Z,42.60
2022-08-23T15:38:24.668Z,42.50
2022-08-23T15:40:53.963Z,42.20
2022-08-23T15:43:22.217Z,42.40
2022-08-23T15:45:51.945Z,43.60
2022-08-23T15:48:29.677Z,43.30
2022-08-23T15:50:58.520Z,43.10
2022-08-23T15:53:26.184Z,43.50
2022-08-23T15:55:53.905Z,43.80
2022-08-23T15:58:24.995Z,43.50
2022-08-23T16:00:53.040Z,43.40
2022-08-23T16:03:21.472Z,43.70
2022-08-23T16:05:52.589Z,44.70
2022-08-23T16:08:26.809Z,43.90
2022-08-23T16:10:54.929Z,43.70
2022-08-23T16:13:22.658Z,43.90
2022-08-23T16:15:51.097Z,44.50
2022-08-23T16:18:18.828Z,44.60
2022-08-23T16:20:45.925Z,45.40
2022-08-23T16:23:13.445Z,45.60
2022-08-23T16:25:40.937Z,47.00
2022-08-23T16:28:08.683Z,46.80
2022-08-23T16:30:36.358Z,46.20
2022-08-23T16:33:03.749Z,45.50
2022-08-23T16:35:30.877Z,45.90
2022-08-23T16:37:57.770Z,45.50
2022-08-23T16:40:24.727Z,45.50
2022-08-23T16:42:52.849Z,46.00
2022-08-23T16:45:25.658Z,45.20
2022-08-23T16:47:55.277Z,45.60
2022-08-23T16:50:22.296Z,46.10
2022-08-23T16:52:49.222Z,46.10
2022-08-23T16:55:16.197Z,46.60
2022-08-23T16:57:43.028Z,47.70
2022-08-23T17:00:12.938Z,47.60
2022-08-23T17:02:42.018Z,47.60
2022-08-23T17:05:11.133Z,47.60
2022-08-23T17:07:39.364Z,47.60
2022-08-23T17:10:09.220Z,48.90
2022-08-23T17:12:39.133Z,50.30
2022-08-23T17:15:08.335Z,51.60
2022-08-23T17:17:35.923Z,52.50
2022-08-23T17:20:05.004Z,53.20
2022-08-23T17:22:33.805Z,53.80
2022-08-23T17:25:00.711Z,54.90
2022-08-23T17:27:27.638Z,54.50
2022-08-23T17:29:54.723Z,54.30
2022-08-23T17:32:21.909Z,54.90
2022-08-23T17:34:48.754Z,55.40
2022-08-23T17:37:21.292Z,56.10
2022-08-23T17:39:49.500Z,56.60
2022-08-23T17:42:17.536Z,57.00
2022-08-23T17:44:44.999Z,57.00
2022-08-23T17:47:16.390Z,57.90
2022-08-23T17:49:45.180Z,58.10
2022-08-23T17:52:12.297Z,59.00
2022-08-23T17:54:40.557Z,59.60
2022-08-23T17:57:09.945Z,60.00
2022-08-23T17:59:37.148Z,60.30
2022-08-23T18:02:05.026Z,60.90
2022-08-23T18:04:31.935Z,61.20
2022-08-23T18:06:59.386Z,61.70
2022-08-23T18:09:26.269Z,61.60
2022-08-23T18:11:53.613Z,61.90
2022-08-23T18:14:20.881Z,62.00
2022-08-23T18:16:48.460Z,61.90
2022-08-23T18:19:15.542Z,61.30
2022-08-23T18:21:43.535Z,61.60
2022-08-23T18:24:10.860Z,63.20
2022-08-23T18:26:56.841Z,63.90
2022-08-23T18:29:24.496Z,63.90
2022-08-23T18:31:51.683Z,64.70
2022-08-23T18:34:19.022Z,65.40
2022-08-23T18:36:49.006Z,66.40
2022-08-23T18:39:31.899Z,66.90
2022-08-23T18:42:00.685Z,67.40
2022-08-23T18:44:27.885Z,67.60
2022-08-23T18:46:54.782Z,68.10
2022-08-23T18:49:21.884Z,68.80
2022-08-23T18:51:48.765Z,69.50
2022-08-23T18:54:15.957Z,69.80
2022-08-23T18:56:42.865Z,71.30
2022-08-23T18:59:09.707Z,72.30
2022-08-23T19:01:42.762Z,73.00
2022-08-23T19:04:12.739Z,72.70
2022-08-23T19:06:40.528Z,73.00
2022-08-23T19:09:08.969Z,73.70
2022-08-23T19:11:41.081Z,75.80
2022-08-23T19:14:10.666Z,76.80
2022-08-23T19:16:39.276Z,78.50
2022-08-23T19:19:06.741Z,79.90
2022-08-23T19:21:33.937Z,82.20
2022-08-23T19:24:00.938Z,83.60
2022-08-23T19:26:31.857Z,86.00
2022-08-23T19:29:00.410Z,86.50
2022-08-23T19:31:33.859Z,88.40
2022-08-23T19:34:03.283Z,90.90
2022-08-23T19:36:45.791Z,92.10
2022-08-23T19:39:16.050Z,93.80
2022-08-23T19:41:43.605Z,96.40
2022-08-23T19:44:10.886Z,98.50
2022-08-23T19:46:41.979Z,99.90
2022-08-23T19:49:10.706Z,99.90
2022-08-23T19:51:38.164Z,99.90
2022-08-23T19:54:11.001Z,99.90
2022-08-23T19:56:57.525Z,99.90
2022-08-23T19:59:31.642Z,99.90
2022-08-23T20:01:59.520Z,99.90
2022-08-23T20:04:29.549Z,99.90
2022-08-23T20:07:01.019Z,99.90
2022-08-23T20:09:30.154Z,99.90
2022-08-23T20:11:57.759Z,99.90
2022-08-23T20:14:26.923Z,99.90
2022-08-23T20:16:54.744Z,99.90
2022-08-23T20:19:22.012Z,99.90
2022-08-23T20:21:49.528Z,99.90
2022-08-23T20:24:22.817Z,99.90
2022-08-23T20:26:59.730Z,99.90
2022-08-23T20:29:26.634Z,99.90
2022-08-23T20:31:56.510Z,99.90
2022-08-23T20:34:26.460Z,99.90
2022-08-23T20:36:56.181Z,99.90
2022-08-23T20:39:24.164Z,99.90
2022-08-23T20:41:52.975Z,99.90
2022-08-23T20:44:22.209Z,99.90
2022-08-23T20:46:53.949Z,99.90
2022-08-23T20:49:23.676Z,99.90
2022-08-23T20:51:51.110Z,99.90
2022-08-23T20:54:18.943Z,99.90
2022-08-23T20:56:45.830Z,99.90
2022-08-23T20:59:15.300Z,99.90
2022-08-23T21:01:42.243Z,99.90
2022-08-23T21:04:09.349Z,99.90
2022-08-23T21:06:45.067Z,99.90
2022-08-23T21:09:17.041Z,99.90
2022-08-23T21:11:45.141Z,99.90
2022-08-23T21:14:15.300Z,99.90
2022-08-23T21:16:42.265Z,99.90
2022-08-23T21:19:09.694Z,99.90
2022-08-23T21:21:40.759Z,99.90
2022-08-23T21:24:09.351Z,99.90
2022-08-23T21:26:36.862Z,99.90
2022-08-23T21:29:05.108Z,99.90
2022-08-23T21:31:32.030Z,99.90
2022-08-23T21:34:00.562Z,99.90
2022-08-23T21:36:28.546Z,99.90
2022-08-23T21:38:55.532Z,99.90
2022-08-23T21:41:36.836Z,99.90
2022-08-23T21:44:07.379Z,99.90
2022-08-23T21:46:34.552Z,99.90
2022-08-23T21:49:02.009Z,99.90
2022-08-23T21:51:29.783Z,99.90
2022-08-23T21:53:56.961Z,99.90
2022-08-23T21:56:26.062Z,99.90
2022-08-23T21:58:54.636Z,99.90
2022-08-23T22:01:21.499Z,99.90
2022-08-23T22:03:48.353Z,99.90
2022-08-23T22:06:17.537Z,99.90
2022-08-23T22:08:45.358Z,99.90
2022-08-23T22:11:13.928Z,99.90
2022-08-23T22:13:44.748Z,99.90
2022-08-23T22:16:12.156Z,99.90
2022-08-23T22:18:39.134Z,99.90
2022-08-23T22:21:07.032Z,99.90
2022-08-23T22:23:36.284Z,99.90
2022-08-23T22:26:07.071Z,99.90
2022-08-23T22:28:36.174Z,99.90
2022-08-23T22:31:06.256Z,99.90
2022-08-23T22:33:33.463Z,99.90
2022-08-23T22:36:09.440Z,99.90
2022-08-23T22:38:37.450Z,99.90
2022-08-23T22:41:04.534Z,99.90
2022-08-23T22:43:31.665Z,99.90
2022-08-23T22:46:01.040Z,99.90
2022-08-23T22:48:30.656Z,99.90
2022-08-23T22:51:14.654Z,99.90
2022-08-23T22:53:45.005Z,99.90
2022-08-23T22:56:16.791Z,99.90
2022-08-23T22:58:44.027Z,99.90
2022-08-23T23:01:17.902Z,99.90
2022-08-23T23:03:45.948Z,99.90
2022-08-23T23:06:13.094Z,99.90
2022-08-23T23:08:40.150Z,99.90
2022-08-23T23:11:10.239Z,99.90
2022-08-23T23:13:37.638Z,99.90
2022-08-23T23:16:07.442Z,99.90
2022-08-23T23:18:34.983Z,99.90
2022-08-23T23:21:04.046Z,99.90
2022-08-23T23:23:34.453Z,99.90
2022-08-23T23:26:01.396Z,99.90
2022-08-23T23:28:28.285Z,99.90
2022-08-23T23:30:55.842Z,99.90
2022-08-23T23:33:23.297Z,99.90
2022-08-23T23:35:51.749Z,99.90
2022-08-23T23:38:19.139Z,99.90
2022-08-23T23:40:46.205Z,99.90
2022-08-23T23:43:13.491Z,99.90
2022-08-23T23:45:41.621Z,99.90
2022-08-23T23:48:09.582Z,99.90
2022-08-23T23:50:42.639Z,99.90
2022-08-23T23:53:12.306Z,99.90
2022-08-23T23:55:39.203Z,99.90
2022-08-23T23:58:06.093Z,99.90
